sensor_id;sensor_type;location;lat;lon;timestamp;pressure;altitude;pressure_sealevel;temperature;humidity
22753;BME280;11543;43.144;24.684;2022-11-15T00:01:45;99615.59;;;11.15;82.65
22753;BME280;11543;43.144;24.684;2022-11-15T00:04:11;99624.06;;;11.20;82.64
22753;BME280;11543;43.144;24.684;2022-11-15T00:06:36;99607.81;;;11.12;82.32
22753;BME280;11543;43.144;24.684;2022-11-15T00:09:02;99621.38;;;11.20;82.44
22753;BME280;11543;43.144;24.684;2022-11-15T00:11:28;99607.81;;;11.12;82.09
22753;BME280;11543;43.144;24.684;2022-11-15T00:13:57;99617.72;;;11.21;82.32
22753;BME280;11543;43.144;24.684;2022-11-15T00:16:23;99603.16;;;11.14;82.09
22753;BME280;11543;43.144;24.684;2022-11-15T00:18:49;99617.00;;;11.19;82.21
22753;BME280;11543;43.144;24.684;2022-11-15T00:21:16;99618.84;;;11.18;82.41
22753;BME280;11543;43.144;24.684;2022-11-15T00:23:41;99578.41;;;11.01;82.29
22753;BME280;11543;43.144;24.684;2022-11-15T00:26:11;99607.25;;;11.18;82.25
22753;BME280;11543;43.144;24.684;2022-11-15T00:28:36;99598.06;;;11.11;82.31
22753;BME280;11543;43.144;24.684;2022-11-15T00:31:04;99577.41;;;11.02;82.65
22753;BME280;11543;43.144;24.684;2022-11-15T00:33:29;99571.63;;;10.97;83.09
22753;BME280;11543;43.144;24.684;2022-11-15T00:36:06;99601.72;;;11.10;83.14
22753;BME280;11543;43.144;24.684;2022-11-15T00:38:33;99595.50;;;11.09;83.08
22753;BME280;11543;43.144;24.684;2022-11-15T00:40:59;99592.25;;;11.06;82.55
22753;BME280;11543;43.144;24.684;2022-11-15T00:43:25;99566.38;;;10.95;82.77
22753;BME280;11543;43.144;24.684;2022-11-15T00:45:50;99584.63;;;11.01;82.85
22753;BME280;11543;43.144;24.684;2022-11-15T00:48:16;99558.03;;;10.89;82.88
22753;BME280;11543;43.144;24.684;2022-11-15T00:50:41;99558.31;;;10.85;82.79
22753;BME280;11543;43.144;24.684;2022-11-15T00:53:06;99588.28;;;11.00;82.68
22753;BME280;11543;43.144;24.684;2022-11-15T00:55:32;99583.63;;;10.93;82.91
22753;BME280;11543;43.144;24.684;2022-11-15T00:57:57;99554.06;;;10.73;82.77
22753;BME280;11543;43.144;24.684;2022-11-15T01:00:22;99577.53;;;10.91;83.17
22753;BME280;11543;43.144;24.684;2022-11-15T01:02:48;99582.91;;;10.91;83.11
22753;BME280;11543;43.144;24.684;2022-11-15T01:05:13;99584.31;;;10.95;82.91
22753;BME280;11543;43.144;24.684;2022-11-15T01:07:39;99577.53;;;10.91;83.65
22753;BME280;11543;43.144;24.684;2022-11-15T01:10:05;99545.59;;;10.78;83.78
22753;BME280;11543;43.144;24.684;2022-11-15T01:12:31;99558.88;;;10.89;83.61
22753;BME280;11543;43.144;24.684;2022-11-15T01:14:57;99552.25;;;10.83;83.61
22753;BME280;11543;43.144;24.684;2022-11-15T01:17:22;99551.81;;;10.88;83.57
22753;BME280;11543;43.144;24.684;2022-11-15T01:19:48;99549.28;;;10.87;83.93
22753;BME280;11543;43.144;24.684;2022-11-15T01:22:13;99536.69;;;10.77;83.77
22753;BME280;11543;43.144;24.684;2022-11-15T01:24:39;99523.84;;;10.71;83.80
22753;BME280;11543;43.144;24.684;2022-11-15T01:27:04;99558.03;;;10.89;83.82
22753;BME280;11543;43.144;24.684;2022-11-15T01:29:29;99529.19;;;10.71;84.08
22753;BME280;11543;43.144;24.684;2022-11-15T01:31:55;99518.47;;;10.71;84.23
22753;BME280;11543;43.144;24.684;2022-11-15T01:34:20;99549.56;;;10.83;84.35
22753;BME280;11543;43.144;24.684;2022-11-15T01:36:46;99547.59;;;10.85;84.32
22753;BME280;11543;43.144;24.684;2022-11-15T01:39:12;99523.25;;;10.68;84.12
22753;BME280;11543;43.144;24.684;2022-11-15T01:41:37;99554.38;;;10.90;84.52
22753;BME280;11543;43.144;24.684;2022-11-15T01:46:56;99532.88;;;10.80;83.44
22753;BME280;11543;43.144;24.684;2022-11-15T01:49:23;99552.69;;;10.89;83.29
22753;BME280;11543;43.144;24.684;2022-11-15T01:51:49;99544.47;;;10.80;83.42
22753;BME280;11543;43.144;24.684;2022-11-15T01:54:17;99522.69;;;10.64;82.89
22753;BME280;11543;43.144;24.684;2022-11-15T01:56:54;99554.66;;;10.87;82.64
22753;BME280;11543;43.144;24.684;2022-11-15T01:59:21;99524.97;;;10.69;82.57
22753;BME280;11543;43.144;24.684;2022-11-15T02:01:47;99529.91;;;10.73;82.54
22753;BME280;11543;43.144;24.684;2022-11-15T02:04:20;99559.75;;;10.90;82.64
22753;BME280;11543;43.144;24.684;2022-11-15T02:06:48;99533.03;;;10.78;82.33
22753;BME280;11543;43.144;24.684;2022-11-15T02:09:14;99554.38;;;10.90;82.24
22753;BME280;11543;43.144;24.684;2022-11-15T02:11:40;99537.41;;;10.79;82.49
22753;BME280;11543;43.144;24.684;2022-11-15T02:14:07;99537.13;;;10.82;82.66
22753;BME280;11543;43.144;24.684;2022-11-15T02:24:47;99536.28;;;10.82;83.33
22753;BME280;11543;43.144;24.684;2022-11-15T02:30:03;99539.53;;;10.85;83.40
22753;BME280;11543;43.144;24.684;2022-11-15T02:32:44;99536.28;;;10.92;83.35
22753;BME280;11543;43.144;24.684;2022-11-15T02:36:01;99547.03;;;10.92;83.21
22753;BME280;11543;43.144;24.684;2022-11-15T02:40:47;99532.63;;;10.93;83.40
22753;BME280;11543;43.144;24.684;2022-11-15T02:43:22;99532.88;;;10.90;83.48
22753;BME280;11543;43.144;24.684;2022-11-15T02:48:45;99529.22;;;10.91;83.34
22753;BME280;11543;43.144;24.684;2022-11-15T02:51:12;99534.31;;;10.94;83.16
22753;BME280;11543;43.144;24.684;2022-11-15T02:53:38;99528.94;;;10.94;83.50
22753;BME280;11543;43.144;24.684;2022-11-15T02:56:04;99528.78;;;10.95;82.94
22753;BME280;11543;43.144;24.684;2022-11-15T02:58:53;99542.50;;;11.02;83.03
22753;BME280;11543;43.144;24.684;2022-11-15T03:06:43;99512.13;;;11.01;82.09
22753;BME280;11543;43.144;24.684;2022-11-15T03:15:05;99535.16;;;11.13;82.03
22753;BME280;11543;43.144;24.684;2022-11-15T03:17:38;99528.94;;;11.13;82.22
22753;BME280;11543;43.144;24.684;2022-11-15T03:20:08;99521.31;;;11.08;81.99
22753;BME280;11543;43.144;24.684;2022-11-15T03:22:42;99523.00;;;11.09;82.08
22753;BME280;11543;43.144;24.684;2022-11-15T03:25:10;99516.78;;;11.09;82.25
22753;BME280;11543;43.144;24.684;2022-11-15T03:27:40;99521.16;;;11.10;81.98
22753;BME280;11543;43.144;24.684;2022-11-15T03:30:08;99521.16;;;11.10;81.64
22753;BME280;11543;43.144;24.684;2022-11-15T03:32:42;99497.84;;;11.01;81.42
22753;BME280;11543;43.144;24.684;2022-11-15T03:35:13;99513.38;;;11.07;81.45
22753;BME280;11543;43.144;24.684;2022-11-15T03:38:03;99505.47;;;11.05;81.57
22753;BME280;11543;43.144;24.684;2022-11-15T03:45:37;99495.72;;;10.95;80.90
22753;BME280;11543;43.144;24.684;2022-11-15T03:48:22;99501.25;;;11.03;80.46
22753;BME280;11543;43.144;24.684;2022-11-15T03:50:49;99492.06;;;10.96;80.19
22753;BME280;11543;43.144;24.684;2022-11-15T03:53:15;99488.53;;;10.95;80.08
22753;BME280;11543;43.144;24.684;2022-11-15T03:55:40;99479.19;;;10.90;79.92
22753;BME280;11543;43.144;24.684;2022-11-15T03:58:06;99485.97;;;10.94;79.90
22753;BME280;11543;43.144;24.684;2022-11-15T04:00:32;99478.91;;;10.93;80.03
22753;BME280;11543;43.144;24.684;2022-11-15T04:02:57;99469.44;;;10.89;79.95
22753;BME280;11543;43.144;24.684;2022-11-15T04:05:22;99484.00;;;10.96;80.18
22753;BME280;11543;43.144;24.684;2022-11-15T04:07:48;99466.19;;;10.85;79.80
22753;BME280;11543;43.144;24.684;2022-11-15T04:10:14;99457.59;;;10.81;80.25
22753;BME280;11543;43.144;24.684;2022-11-15T04:12:42;99471.56;;;10.95;80.02
22753;BME280;11543;43.144;24.684;2022-11-15T04:17:47;99476.94;;;10.95;80.55
22753;BME280;11543;43.144;24.684;2022-11-15T04:20:17;99479.47;;;10.96;80.55
22753;BME280;11543;43.144;24.684;2022-11-15T04:23:07;99464.50;;;10.94;80.58
22753;BME280;11543;43.144;24.684;2022-11-15T04:25:52;99464.78;;;10.91;80.77
22753;BME280;11543;43.144;24.684;2022-11-15T04:28:19;99456.47;;;10.84;80.89
22753;BME280;11543;43.144;24.684;2022-11-15T04:30:44;99457.31;;;10.84;80.97
22753;BME280;11543;43.144;24.684;2022-11-15T04:33:10;99443.59;;;10.78;81.12
22753;BME280;11543;43.144;24.684;2022-11-15T04:35:35;99457.59;;;10.81;81.08
22753;BME280;11543;43.144;24.684;2022-11-15T04:38:02;99460.97;;;10.83;81.40
22753;BME280;11543;43.144;24.684;2022-11-15T04:40:28;99439.66;;;10.72;81.41
22753;BME280;11543;43.144;24.684;2022-11-15T04:42:54;99450.09;;;10.75;81.51
22753;BME280;11543;43.144;24.684;2022-11-15T04:45:20;99448.13;;;10.77;81.91
22753;BME280;11543;43.144;24.684;2022-11-15T04:47:46;99466.06;;;10.87;82.14
22753;BME280;11543;43.144;24.684;2022-11-15T04:50:12;99454.63;;;10.84;81.77
22753;BME280;11543;43.144;24.684;2022-11-15T04:52:58;99454.34;;;10.88;81.46
22753;BME280;11543;43.144;24.684;2022-11-15T04:55:24;99442.47;;;10.80;81.51
22753;BME280;11543;43.144;24.684;2022-11-15T04:57:57;99452.06;;;10.93;81.21
22753;BME280;11543;43.144;24.684;2022-11-15T05:00:23;99414.50;;;10.73;81.02
22753;BME280;11543;43.144;24.684;2022-11-15T05:02:49;99446.69;;;10.93;80.93
22753;BME280;11543;43.144;24.684;2022-11-15T05:05:33;99439.91;;;10.89;80.57
22753;BME280;11543;43.144;24.684;2022-11-15T05:07:58;99404.47;;;10.75;80.37
22753;BME280;11543;43.144;24.684;2022-11-15T05:10:23;99446.69;;;10.93;80.81
22753;BME280;11543;43.144;24.684;2022-11-15T05:12:49;99451.22;;;11.02;80.55
22753;BME280;11543;43.144;24.684;2022-11-15T05:15:14;99430.59;;;10.93;80.75
22753;BME280;11543;43.144;24.684;2022-11-15T05:17:40;99448.25;;;11.05;80.46
22753;BME280;11543;43.144;24.684;2022-11-15T05:20:06;99441.59;;;11.09;80.52
22753;BME280;11543;43.144;24.684;2022-11-15T05:22:32;99456.44;;;11.13;80.54
22753;BME280;11543;43.144;24.684;2022-11-15T05:24:57;99451.34;;;11.10;80.45
22753;BME280;11543;43.144;24.684;2022-11-15T05:27:22;99441.88;;;11.06;80.35
22753;BME280;11543;43.144;24.684;2022-11-15T05:29:48;99444.16;;;11.01;80.35
22753;BME280;11543;43.144;24.684;2022-11-15T05:32:13;99463.78;;;11.11;80.31
22753;BME280;11543;43.144;24.684;2022-11-15T05:34:39;99457.28;;;11.13;80.11
22753;BME280;11543;43.144;24.684;2022-11-15T05:37:06;99470.28;;;11.18;80.29
22753;BME280;11543;43.144;24.684;2022-11-15T05:39:31;99443.31;;;11.00;79.88
22753;BME280;11543;43.144;24.684;2022-11-15T05:42:12;99458.25;;;11.12;80.08
22753;BME280;11543;43.144;24.684;2022-11-15T05:44:41;99461.50;;;11.16;79.89
22753;BME280;11543;43.144;24.684;2022-11-15T05:47:10;99460.94;;;11.22;79.95
22753;BME280;11543;43.144;24.684;2022-11-15T05:49:41;99468.16;;;11.22;80.00
22753;BME280;11543;43.144;24.684;2022-11-15T05:52:11;99453.88;;;11.11;79.57
22753;BME280;11543;43.144;24.684;2022-11-15T05:54:38;99478.75;;;11.23;79.83
22753;BME280;11543;43.144;24.684;2022-11-15T05:57:04;99442.16;;;11.03;80.01
22753;BME280;11543;43.144;24.684;2022-11-15T05:59:31;99485.41;;;11.19;80.08
22753;BME280;11543;43.144;24.684;2022-11-15T06:01:57;99466.47;;;11.11;79.89
22753;BME280;11543;43.144;24.684;2022-11-15T06:04:23;99445.28;;;10.98;80.02
22753;BME280;11543;43.144;24.684;2022-11-15T06:06:50;99449.38;;;11.02;80.01
22753;BME280;11543;43.144;24.684;2022-11-15T06:09:15;99461.38;;;11.08;79.94
22753;BME280;11543;43.144;24.684;2022-11-15T06:11:41;99454.31;;;11.07;79.86
22753;BME280;11543;43.144;24.684;2022-11-15T06:14:06;99480.03;;;11.19;79.82
22753;BME280;11543;43.144;24.684;2022-11-15T06:16:34;99480.16;;;11.17;80.12
22753;BME280;11543;43.144;24.684;2022-11-15T06:18:59;99471.56;;;11.14;80.01
22753;BME280;11543;43.144;24.684;2022-11-15T06:21:25;99468.44;;;11.09;80.20
22753;BME280;11543;43.144;24.684;2022-11-15T06:23:53;99470.41;;;11.16;80.30
22753;BME280;11543;43.144;24.684;2022-11-15T06:26:18;99469.84;;;11.13;80.32
22753;BME280;11543;43.144;24.684;2022-11-15T06:28:44;99462.78;;;11.12;80.52
22753;BME280;11543;43.144;24.684;2022-11-15T06:31:11;99465.31;;;11.23;80.55
22753;BME280;11543;43.144;24.684;2022-11-15T06:33:37;99461.94;;;11.21;80.60
22753;BME280;11543;43.144;24.684;2022-11-15T06:36:05;99460.22;;;11.20;80.68
22753;BME280;11543;43.144;24.684;2022-11-15T06:38:32;99453.75;;;11.13;80.70
22753;BME280;11543;43.144;24.684;2022-11-15T06:41:08;99468.00;;;11.23;80.91
22753;BME280;11543;43.144;24.684;2022-11-15T06:43:34;99451.47;;;11.18;80.61
22753;BME280;11543;43.144;24.684;2022-11-15T06:46:01;99468.44;;;11.28;80.67
22753;BME280;11543;43.144;24.684;2022-11-15T06:48:27;99463.63;;;11.22;80.79
22753;BME280;11543;43.144;24.684;2022-11-15T06:50:58;99461.63;;;11.24;81.02
22753;BME280;11543;43.144;24.684;2022-11-15T06:53:24;99454.56;;;11.23;81.23
22753;BME280;11543;43.144;24.684;2022-11-15T06:55:50;99467.00;;;11.24;81.40
22753;BME280;11543;43.144;24.684;2022-11-15T06:58:16;99449.50;;;11.20;81.58
22753;BME280;11543;43.144;24.684;2022-11-15T07:00:42;99441.03;;;11.15;81.18
22753;BME280;11543;43.144;24.684;2022-11-15T07:03:08;99451.19;;;11.21;81.33
22753;BME280;11543;43.144;24.684;2022-11-15T07:05:33;99444.97;;;11.21;81.34
22753;BME280;11543;43.144;24.684;2022-11-15T07:07:59;99458.69;;;11.27;81.45
22753;BME280;11543;43.144;24.684;2022-11-15T07:10:25;99452.34;;;11.28;81.35
22753;BME280;11543;43.144;24.684;2022-11-15T07:12:52;99443.13;;;11.31;81.35
22753;BME280;11543;43.144;24.684;2022-11-15T07:15:19;99442.16;;;11.32;81.06
22753;BME280;11543;43.144;24.684;2022-11-15T07:17:45;99442.69;;;11.35;80.98
22753;BME280;11543;43.144;24.684;2022-11-15T07:20:11;99449.19;;;11.42;80.83
22753;BME280;11543;43.144;24.684;2022-11-15T07:22:38;99449.88;;;11.44;80.52
22753;BME280;11543;43.144;24.684;2022-11-15T07:25:04;99446.34;;;11.44;80.89
22753;BME280;11543;43.144;24.684;2022-11-15T07:27:29;99429.41;;;11.34;80.86
22753;BME280;11543;43.144;24.684;2022-11-15T07:29:55;99427.56;;;11.34;80.92
22753;BME280;11543;43.144;24.684;2022-11-15T07:32:20;99434.91;;;11.42;81.12
22753;BME280;11543;43.144;24.684;2022-11-15T07:34:46;99435.75;;;11.42;81.10
22753;BME280;11543;43.144;24.684;2022-11-15T07:37:12;99445.22;;;11.46;81.18
22753;BME280;11543;43.144;24.684;2022-11-15T07:39:37;99435.75;;;11.42;81.08
22753;BME280;11543;43.144;24.684;2022-11-15T07:42:03;99430.97;;;11.36;80.93
22753;BME280;11543;43.144;24.684;2022-11-15T07:44:52;99441.81;;;11.44;81.27
22753;BME280;11543;43.144;24.684;2022-11-15T07:47:17;99438.69;;;11.49;81.02
22753;BME280;11543;43.144;24.684;2022-11-15T07:49:43;99427.41;;;11.45;80.98
22753;BME280;11543;43.144;24.684;2022-11-15T07:52:08;99431.03;;;11.54;80.82
22753;BME280;11543;43.144;24.684;2022-11-15T07:54:33;99419.75;;;11.51;81.08
22753;BME280;11543;43.144;24.684;2022-11-15T07:56:59;99427.34;;;11.55;80.71
22753;BME280;11543;43.144;24.684;2022-11-15T07:59:24;99423.94;;;11.63;80.74
22753;BME280;11543;43.144;24.684;2022-11-15T08:01:50;99436.09;;;11.67;80.48
22753;BME280;11543;43.144;24.684;2022-11-15T08:04:15;99414.19;;;11.62;80.43
22753;BME280;11543;43.144;24.684;2022-11-15T08:06:41;99427.28;;;11.74;80.56
22753;BME280;11543;43.144;24.684;2022-11-15T08:09:06;99421.34;;;11.71;80.44
22753;BME280;11543;43.144;24.684;2022-11-15T08:11:31;99420.81;;;11.67;80.93
22753;BME280;11543;43.144;24.684;2022-11-15T08:13:58;99408.94;;;11.60;80.66
22753;BME280;11543;43.144;24.684;2022-11-15T08:16:23;99414.59;;;11.67;80.88
22753;BME280;11543;43.144;24.684;2022-11-15T08:18:49;99431.25;;;11.70;80.49
22753;BME280;11543;43.144;24.684;2022-11-15T08:21:18;99421.34;;;11.71;80.67
22753;BME280;11543;43.144;24.684;2022-11-15T08:23:44;99409.75;;;11.70;80.52
22753;BME280;11543;43.144;24.684;2022-11-15T08:26:10;99423.91;;;11.72;80.69
22753;BME280;11543;43.144;24.684;2022-11-15T08:28:38;99417.13;;;11.78;80.52
22753;BME280;11543;43.144;24.684;2022-11-15T08:31:04;99413.44;;;11.79;80.41
22753;BME280;11543;43.144;24.684;2022-11-15T08:33:30;99409.75;;;11.80;80.25
22753;BME280;11543;43.144;24.684;2022-11-15T08:36:00;99402.66;;;11.79;80.02
22753;BME280;11543;43.144;24.684;2022-11-15T08:38:26;99409.16;;;11.86;80.10
22753;BME280;11543;43.144;24.684;2022-11-15T08:41:02;99400.38;;;11.84;79.91
22753;BME280;11543;43.144;24.684;2022-11-15T08:43:28;99397.78;;;11.92;79.35
22753;BME280;11543;43.144;24.684;2022-11-15T08:45:57;99379.88;;;11.83;78.95
22753;BME280;11543;43.144;24.684;2022-11-15T08:48:22;99382.81;;;11.90;78.72
22753;BME280;11543;43.144;24.684;2022-11-15T08:50:48;99390.41;;;11.94;78.58
22753;BME280;11543;43.144;24.684;2022-11-15T08:53:13;99393.81;;;11.96;78.22
22753;BME280;11543;43.144;24.684;2022-11-15T08:55:42;99391.81;;;11.98;77.95
22753;BME280;11543;43.144;24.684;2022-11-15T08:58:08;99389.81;;;12.00;77.51
22753;BME280;11543;43.144;24.684;2022-11-15T09:00:33;99390.72;;;11.91;77.74
22753;BME280;11543;43.144;24.684;2022-11-15T09:03:06;99374.34;;;11.85;77.64
22753;BME280;11543;43.144;24.684;2022-11-15T09:05:32;99378.56;;;11.87;77.61
22753;BME280;11543;43.144;24.684;2022-11-15T09:08:00;99364.44;;;11.85;77.55
22753;BME280;11543;43.144;24.684;2022-11-15T09:10:26;99364.13;;;11.88;77.42
22753;BME280;11543;43.144;24.684;2022-11-15T09:12:51;99364.06;;;11.98;77.21
22753;BME280;11543;43.144;24.684;2022-11-15T09:15:17;99345.69;;;11.93;76.84
22753;BME280;11543;43.144;24.684;2022-11-15T09:17:42;99340.31;;;11.93;76.61
22753;BME280;11543;43.144;24.684;2022-11-15T09:20:09;99356.94;;;12.06;76.79
22753;BME280;11543;43.144;24.684;2022-11-15T09:22:35;99344.19;;;12.08;76.81
22753;BME280;11543;43.144;24.684;2022-11-15T09:25:02;99345.56;;;12.12;76.94
22753;BME280;11543;43.144;24.684;2022-11-15T09:27:29;99336.81;;;12.10;76.74
22753;BME280;11543;43.144;24.684;2022-11-15T09:29:54;99336.22;;;12.17;76.63
22753;BME280;11543;43.144;24.684;2022-11-15T09:32:20;99304.06;;;11.97;76.69
22753;BME280;11543;43.144;24.684;2022-11-15T09:34:45;99309.00;;;12.02;76.55
22753;BME280;11543;43.144;24.684;2022-11-15T09:37:11;99327.16;;;12.18;76.19
22753;BME280;11543;43.144;24.684;2022-11-15T09:39:37;99328.84;;;12.19;76.10
22753;BME280;11543;43.144;24.684;2022-11-15T09:42:18;99326.53;;;12.24;75.57
22753;BME280;11543;43.144;24.684;2022-11-15T09:50:06;99307.34;;;12.19;75.23
22753;BME280;11543;43.144;24.684;2022-11-15T09:52:35;99302.66;;;12.21;75.04
22753;BME280;11543;43.144;24.684;2022-11-15T09:55:02;99308.56;;;12.24;74.91
22753;BME280;11543;43.144;24.684;2022-11-15T09:58:05;99310.78;;;12.29;75.13
22753;BME280;11543;43.144;24.684;2022-11-15T10:00:39;99304.41;;;12.30;75.11
22753;BME280;11543;43.144;24.684;2022-11-15T10:03:16;99301.56;;;12.31;75.18
22753;BME280;11543;43.144;24.684;2022-11-15T10:05:46;99301.41;;;12.33;74.98
22753;BME280;11543;43.144;24.684;2022-11-15T10:08:28;99293.63;;;12.30;75.00
22753;BME280;11543;43.144;24.684;2022-11-15T10:11:08;99299.41;;;12.35;75.28
22753;BME280;11543;43.144;24.684;2022-11-15T10:13:37;99287.41;;;12.29;75.24
22753;BME280;11543;43.144;24.684;2022-11-15T10:24:46;99278.94;;;12.06;74.95
22753;BME280;11543;43.144;24.684;2022-11-15T10:27:13;99289.63;;;11.98;75.41
22753;BME280;11543;43.144;24.684;2022-11-15T10:29:48;99284.84;;;11.92;75.69
22753;BME280;11543;43.144;24.684;2022-11-15T10:32:18;99279.28;;;11.76;75.62
22753;BME280;11543;43.144;24.684;2022-11-15T10:34:45;99281.41;;;11.82;76.20
22753;BME280;11543;43.144;24.684;2022-11-15T10:37:11;99268.41;;;11.77;76.28
22753;BME280;11543;43.144;24.684;2022-11-15T10:39:36;99269.94;;;11.80;76.36
22753;BME280;11543;43.144;24.684;2022-11-15T10:42:22;99267.41;;;11.78;76.82
22753;BME280;11543;43.144;24.684;2022-11-15T10:44:50;99267.53;;;11.77;77.02
22753;BME280;11543;43.144;24.684;2022-11-15T10:49:56;99262.56;;;11.82;77.14
22753;BME280;11543;43.144;24.684;2022-11-15T10:52:23;99248.03;;;11.75;76.88
22753;BME280;11543;43.144;24.684;2022-11-15T10:55:12;99252.41;;;11.76;77.00
22753;BME280;11543;43.144;24.684;2022-11-15T10:57:54;99254.69;;;11.71;77.38
22753;BME280;11543;43.144;24.684;2022-11-15T11:08:23;99237.38;;;11.83;77.49
22753;BME280;11543;43.144;24.684;2022-11-15T11:10:57;99234.38;;;11.86;77.63
22753;BME280;11543;43.144;24.684;2022-11-15T11:13:42;99232.78;;;11.93;77.75
22753;BME280;11543;43.144;24.684;2022-11-15T11:18:55;99219.09;;;12.04;77.83
22753;BME280;11543;43.144;24.684;2022-11-15T11:31:52;99190.34;;;12.23;77.74
22753;BME280;11543;43.144;24.684;2022-11-15T11:37:20;99188.78;;;12.38;77.63
22753;BME280;11543;43.144;24.684;2022-11-15T11:43:34;99172.50;;;12.48;77.35
22753;BME280;11543;43.144;24.684;2022-11-15T11:48:45;99173.03;;;12.51;77.31
22753;BME280;11543;43.144;24.684;2022-11-15T11:51:26;99176.09;;;12.56;77.06
22753;BME280;11543;43.144;24.684;2022-11-15T11:54:14;99169.56;;;12.59;76.85
22753;BME280;11543;43.144;24.684;2022-11-15T11:56:44;99156.25;;;12.57;76.45
22753;BME280;11543;43.144;24.684;2022-11-15T11:59:21;99163.00;;;12.61;76.52
22753;BME280;11543;43.144;24.684;2022-11-15T12:01:48;99137.38;;;12.49;76.17
22753;BME280;11543;43.144;24.684;2022-11-15T12:04:36;99160.69;;;12.66;76.08
22753;BME280;11543;43.144;24.684;2022-11-15T12:07:23;99159.16;;;12.64;75.94
22753;BME280;11543;43.144;24.684;2022-11-15T12:10:03;99161.00;;;12.63;75.90
22753;BME280;11543;43.144;24.684;2022-11-15T12:12:47;99156.41;;;12.56;75.87
22753;BME280;11543;43.144;24.684;2022-11-15T12:15:39;99156.91;;;12.51;76.44
22753;BME280;11543;43.144;24.684;2022-11-15T12:18:12;99147.72;;;12.36;76.40
22753;BME280;11543;43.144;24.684;2022-11-15T12:20:47;99137.59;;;12.30;76.14
22753;BME280;11543;43.144;24.684;2022-11-15T12:23:19;99154.06;;;12.27;76.03
22753;BME280;11543;43.144;24.684;2022-11-15T12:31:02;99135.19;;;12.19;76.69
22753;BME280;11543;43.144;24.684;2022-11-15T12:33:42;99133.81;;;12.15;76.60
22753;BME280;11543;43.144;24.684;2022-11-15T12:36:11;99127.03;;;12.10;76.61
22753;BME280;11543;43.144;24.684;2022-11-15T12:39:02;99129.66;;;12.02;76.64
22753;BME280;11543;43.144;24.684;2022-11-15T12:41:28;99135.34;;;11.99;76.58
22753;BME280;11543;43.144;24.684;2022-11-15T12:43:55;99114.47;;;11.93;76.75
22753;BME280;11543;43.144;24.684;2022-11-15T12:49:09;99110.78;;;11.94;77.15
22753;BME280;11543;43.144;24.684;2022-11-15T12:59:57;99104.56;;;11.94;77.67
22753;BME280;11543;43.144;24.684;2022-11-15T13:18:25;99100.34;;;11.91;78.00
22753;BME280;11543;43.144;24.684;2022-11-15T13:20:51;99103.72;;;11.93;78.12
22753;BME280;11543;43.144;24.684;2022-11-15T13:23:17;99087.69;;;11.84;78.47
22753;BME280;11543;43.144;24.684;2022-11-15T13:30:50;99083.63;;;12.05;78.53
22753;BME280;11543;43.144;24.684;2022-11-15T13:33:21;99077.25;;;12.06;78.36
22753;BME280;11543;43.144;24.684;2022-11-15T13:35:51;99081.78;;;12.06;78.06
22753;BME280;11543;43.144;24.684;2022-11-15T13:38:29;99091.38;;;12.08;78.19
22753;BME280;11543;43.144;24.684;2022-11-15T13:40:57;99090.31;;;12.01;77.96
22753;BME280;11543;43.144;24.684;2022-11-15T13:48:29;99063.97;;;11.79;77.78
22753;BME280;11543;43.144;24.684;2022-11-15T13:50:56;99070.47;;;11.76;77.80
22753;BME280;11543;43.144;24.684;2022-11-15T13:53:23;99069.25;;;11.71;78.13
22753;BME280;11543;43.144;24.684;2022-11-15T13:55:49;99059.81;;;11.67;78.44
22753;BME280;11543;43.144;24.684;2022-11-15T13:58:15;99060.56;;;11.77;78.54
22753;BME280;11543;43.144;24.684;2022-11-15T14:00:44;99060.28;;;11.80;78.27
22753;BME280;11543;43.144;24.684;2022-11-15T14:03:23;99062.13;;;11.79;78.22
22753;BME280;11543;43.144;24.684;2022-11-15T14:06:09;99066.66;;;11.79;77.99
22753;BME280;11543;43.144;24.684;2022-11-15T14:08:58;99070.41;;;11.68;77.49
22753;BME280;11543;43.144;24.684;2022-11-15T14:11:24;99048.41;;;11.47;77.56
22753;BME280;11543;43.144;24.684;2022-11-15T14:14:04;99065.06;;;11.51;77.20
22753;BME280;11543;43.144;24.684;2022-11-15T14:19:09;99058.56;;;11.35;77.77
22753;BME280;11543;43.144;24.684;2022-11-15T14:21:35;99048.81;;;11.34;78.43
22753;BME280;11543;43.144;24.684;2022-11-15T14:24:33;99057.25;;;11.39;78.93
22753;BME280;11543;43.144;24.684;2022-11-15T14:27:19;99054.19;;;11.34;79.08
22753;BME280;11543;43.144;24.684;2022-11-15T14:29:45;99056.47;;;11.29;78.96
22753;BME280;11543;43.144;24.684;2022-11-15T14:32:23;99058.88;;;11.32;79.02
22753;BME280;11543;43.144;24.684;2022-11-15T14:35:01;99062.13;;;11.26;78.79
22753;BME280;11543;43.144;24.684;2022-11-15T14:37:29;99054.69;;;11.20;79.32
22753;BME280;11543;43.144;24.684;2022-11-15T14:40:03;99055.00;;;11.17;79.13
22753;BME280;11543;43.144;24.684;2022-11-15T14:42:29;99045.88;;;11.10;79.21
22753;BME280;11543;43.144;24.684;2022-11-15T14:44:55;99045.56;;;11.13;79.69
22753;BME280;11543;43.144;24.684;2022-11-15T14:47:20;99039.13;;;11.06;79.62
22753;BME280;11543;43.144;24.684;2022-11-15T14:49:46;99041.81;;;11.06;79.58
22753;BME280;11543;43.144;24.684;2022-11-15T14:54:46;99022.69;;;10.91;79.51
22753;BME280;11543;43.144;24.684;2022-11-15T14:57:12;99009.06;;;10.84;79.39
22753;BME280;11543;43.144;24.684;2022-11-15T14:59:38;99025.63;;;10.98;79.80
22753;BME280;11543;43.144;24.684;2022-11-15T15:02:12;99044.19;;;11.09;79.63
22753;BME280;11543;43.144;24.684;2022-11-15T15:04:40;99033.22;;;11.02;80.11
22753;BME280;11543;43.144;24.684;2022-11-15T15:07:05;98995.94;;;10.81;80.35
22753;BME280;11543;43.144;24.684;2022-11-15T15:09:30;99027.78;;;11.12;80.68
22753;BME280;11543;43.144;24.684;2022-11-15T15:11:56;99000.22;;;11.10;80.40
22753;BME280;11543;43.144;24.684;2022-11-15T15:14:21;99019.94;;;11.36;80.27